Puerto Suárez International Airport

Airport
ICAO code: 
SLPS
IATA Code: 
PSZ
Summary
ICAO Region: 
CARSAM
Territory: 
Location: 
Puerto Suarez, Santa Cruz
Serving: 
Puerto Suarez
Elevation: 
439 ft
Coordinates: 
Aerial View: 
18° 58' 31.012" S, 57° 49' 14.11" W
Metar
Observation
SLPS 181900Z 36008KT 9999 BKN017 38/23 Q1008
Station
Puerto Suarez
Date/Time
2022-01-18 19:00:00
Wind direction
360°
Wind speed
08 kts
Lowest cloud amount
broken clouds
Temperature
38°C
Dew point
23°C
Humidity
42%
QNH
1008 hPa
Weather condition
n/a

Runways

Designator Length Width Surface Rops
4/22 2000 36 ASP No/No
Airport map: 
Aerial View: 

SKYbrary Partners:

Safety knowledge contributed by: